LFMILFTW

Guest
Details From LFMI - Istres Le Tube BA
To LFTW - Garons Navy
Flight Number -
Tags generated
Created
Modified
Stats Distance 27 nm / 49 km
Max Altitude 100 ft / 30 m
Waypoints 3
Social Downloads 1
Likes 0
Share VATSIM

Download

Looking for another format? Having issues loading an existing format? Contact us
Advertisement - Login to hide

Notes

Basic altitude profile: - Ascent Rate: 800ft/min - Ascent Speed: 160kts - Cruise Altitude: 180ft - Cruise Speed: 150kts - Descent Rate: 800ft/min - Descent Speed: 140kts Options: - Use NATs: yes - Use PACOTS: yes - Use low airways: yes - Use high airways: yes

Route

LFMI ITR LFTW

ID Type Via Altitude Latitude Longitude Leg Dist Tot Dist Heading (true) Name
O LFMI APT - 0 ft / 0 m 43.52124˚ 4.92232˚ - 0 nm - Istres Le Tube BA
ITR DME - 100 ft / 30 m 43.52608˚ 4.92692˚ 0 nm 0 nm 35° / 35° ISTRES TACAN DME
O LFTW APT - 0 ft / 0 m 43.75744˚ 4.41639˚ 26 nm 26 nm 302° / 302° Garons Navy

Altitude Profile

Advertisement - Login to hide

LFMI

Details ICAO LFMI
Name Istres Le Tube BA
Region France
Timezone Europe/Paris (UTC+1.0)
Stats Elevation 81 ft / 25 m (AMSL)
Location 43.521242° 4.922320°
Runways 2
Magnetic Variation 1.483° E

METAR

LFMI 170100Z AUTO 31018KT CAVOK 04/00 Q1020 TEMPO 33025G35KT

Decode

TAF

TAF LFMI 162000Z 1621/1721 31022KT CAVOK TEMPO 1621/1715 33025G35KT PROB40 TEMPO 1706/1709 34030KT

Decode

Departure Runways

ID Width Length Bearing (true) Bearing (mag) Surface Threshold Offset Overrun Length
15 197 ft / 60 m 12,310 ft / 3,752 m 152.71° 151.23° Concrete 0 ft / 0 m 3,963 ft / 1,208 m
15R 82 ft / 25 m 2,955 ft / 901 m 152.72° 151.24° Concrete 0 ft / 0 m 0 ft / 0 m
33 197 ft / 60 m 12,310 ft / 3,752 m 332.73° 331.25° Concrete 0 ft / 0 m 374 ft / 114 m
33L 82 ft / 25 m 2,955 ft / 901 m 332.72° 331.24° Concrete 0 ft / 0 m 0 ft / 0 m

LFTW

Details ICAO LFTW (FNI)
Name Garons Navy
Region France
Timezone Europe/Paris (UTC+1.0)
Stats Elevation 308 ft / 94 m (AMSL)
Location 43.757444° 4.416388°
Runways 1
Magnetic Variation 1.356° E

METAR

LFTW 170100Z AUTO 34004KT 300V360 CAVOK 01/M04 Q1022

Decode

TAF

TAF LFTW 161903Z 1619/1715 CNL

Decode

Destination Runways

ID Width Length Bearing (true) Bearing (mag) Surface Threshold Offset Overrun Length
18 148 ft / 45 m 8,657 ft / 2,639 m 177.10° 175.74° Concrete 331 ft / 101 m 0 ft / 0 m
36 148 ft / 45 m 8,657 ft / 2,639 m 357.10° 355.74° Concrete 331 ft / 101 m 0 ft / 0 m

Approach Navaids

Runway Type Ident Frequency Range Bearing (true) Bearing (mag) Slope Elevation
18 Localiser NG 109.55 MHz 18 nm / 33 km 177.13° 175.77° - 306 ft / 93 m (AMSL)
18 Glidescope NG 109.55 MHz 10 nm / 19 km 177.10° 175.74° 3.00° 302 ft / 92 m (AMSL)
18 DME NG 109.55 MHz 18 nm / 33 km - - - 340 ft / 104 m (AMSL)
36 Localiser NG 109.09 MHz 18 nm / 33 km 356.75° 355.39° - 308 ft / 94 m (AMSL)
36 Glidescope NG 109.09 MHz 10 nm / 19 km 357.10° 355.74° 3.00° 308 ft / 94 m (AMSL)